createdAt,value
2022-10-16T00:01:34.216Z,17.10
2022-10-16T00:04:04.481Z,17.40
2022-10-16T00:06:33.159Z,17.40
2022-10-16T00:09:01.270Z,17.10
2022-10-16T00:11:31.302Z,17.40
2022-10-16T00:14:02.767Z,17.30
2022-10-16T00:16:30.698Z,17.20
2022-10-16T00:18:59.154Z,17.30
2022-10-16T00:21:29.919Z,17.00
2022-10-16T00:24:00.505Z,17.00
2022-10-16T00:26:29.790Z,17.30
2022-10-16T00:28:57.666Z,17.20
2022-10-16T00:31:26.524Z,17.20
2022-10-16T00:33:54.564Z,17.30
2022-10-16T00:36:25.715Z,16.90
2022-10-16T00:38:55.561Z,17.30
2022-10-16T00:41:25.827Z,17.00
2022-10-16T00:43:55.451Z,17.20
2022-10-16T00:46:25.130Z,17.20
2022-10-16T00:48:56.618Z,17.20
2022-10-16T00:51:28.071Z,17.40
2022-10-16T00:53:58.124Z,17.30
2022-10-16T00:56:25.840Z,17.00
2022-10-16T00:58:53.907Z,17.20
2022-10-16T01:01:21.714Z,17.10
2022-10-16T01:03:49.458Z,17.40
2022-10-16T01:09:12.016Z,17.10
2022-10-16T01:11:47.128Z,17.10
2022-10-16T01:14:21.644Z,17.10
2022-10-16T01:16:54.675Z,17.20
2022-10-16T01:19:38.020Z,17.30
2022-10-16T01:22:07.129Z,17.00
2022-10-16T01:24:41.714Z,17.00
2022-10-16T01:27:15.779Z,16.70
2022-10-16T01:29:51.920Z,17.20
2022-10-16T01:32:34.895Z,17.00
2022-10-16T01:35:06.661Z,17.10
2022-10-16T01:37:40.551Z,16.90
2022-10-16T01:40:12.173Z,16.90
2022-10-16T01:42:44.857Z,17.20
2022-10-16T01:45:16.375Z,17.20
2022-10-16T01:47:44.943Z,17.20
2022-10-16T01:50:14.170Z,17.30
2022-10-16T01:52:45.732Z,17.20
2022-10-16T01:55:16.550Z,17.20
2022-10-16T01:57:48.639Z,17.20
2022-10-16T02:00:20.916Z,17.40
2022-10-16T02:02:53.455Z,17.10
2022-10-16T02:05:27.372Z,17.30
2022-10-16T02:07:55.152Z,17.50
2022-10-16T02:10:23.324Z,17.30
2022-10-16T02:12:59.591Z,17.40
2022-10-16T02:15:27.390Z,17.30
2022-10-16T02:17:55.078Z,17.40
2022-10-16T02:20:27.289Z,17.50
2022-10-16T02:22:57.749Z,17.40
2022-10-16T02:25:31.625Z,17.50
2022-10-16T02:28:05.039Z,17.40
2022-10-16T02:30:38.104Z,17.20
2022-10-16T02:33:10.369Z,17.40
2022-10-16T02:35:39.377Z,17.10
2022-10-16T02:38:08.136Z,17.40
2022-10-16T02:40:36.589Z,16.90
2022-10-16T02:43:07.027Z,17.10
2022-10-16T02:45:34.907Z,17.00
2022-10-16T02:48:02.628Z,17.30
2022-10-16T02:50:30.391Z,17.20
2022-10-16T02:52:58.058Z,17.10
2022-10-16T02:55:25.815Z,17.20
2022-10-16T02:57:53.599Z,17.40
2022-10-16T03:00:22.822Z,17.60
2022-10-16T03:02:50.542Z,17.20
2022-10-16T03:05:18.769Z,17.20
2022-10-16T03:07:46.541Z,17.40
2022-10-16T03:10:14.424Z,17.30
2022-10-16T03:12:42.113Z,16.80
2022-10-16T03:15:10.604Z,17.30
2022-10-16T03:17:39.668Z,17.10
2022-10-16T03:20:08.403Z,17.30
2022-10-16T03:22:36.215Z,17.10
2022-10-16T03:25:04.111Z,17.10
2022-10-16T03:27:31.807Z,17.30
2022-10-16T03:29:59.504Z,17.40
2022-10-16T03:32:27.261Z,17.10
2022-10-16T03:34:57.828Z,17.40
2022-10-16T03:37:25.932Z,17.10
2022-10-16T03:39:54.455Z,17.50
2022-10-16T03:42:22.234Z,17.30
2022-10-16T03:44:49.936Z,17.00
2022-10-16T03:47:21.588Z,17.60
2022-10-16T03:49:49.476Z,17.40
2022-10-16T03:54:46.559Z,17.30
2022-10-16T03:57:14.254Z,17.30
2022-10-16T03:59:41.963Z,17.40
2022-10-16T04:02:09.648Z,17.20
2022-10-16T04:04:37.646Z,17.30
2022-10-16T04:07:05.599Z,17.50
2022-10-16T04:09:34.720Z,17.30
2022-10-16T04:12:02.841Z,17.40
2022-10-16T04:14:30.512Z,17.50
2022-10-16T04:16:58.216Z,17.40
2022-10-16T04:19:25.880Z,17.10
2022-10-16T04:21:53.587Z,17.70
2022-10-16T04:24:21.262Z,17.40
2022-10-16T04:26:50.371Z,17.60
2022-10-16T04:29:18.201Z,17.60
2022-10-16T04:31:45.871Z,17.40
2022-10-16T04:34:13.637Z,17.30
2022-10-16T04:36:41.355Z,17.40
2022-10-16T04:39:09.091Z,17.50
2022-10-16T04:41:36.880Z,17.30
2022-10-16T04:44:05.921Z,17.40
2022-10-16T04:46:33.625Z,17.40
2022-10-16T04:49:01.335Z,17.20
2022-10-16T04:51:29.151Z,17.30
2022-10-16T04:53:57.015Z,17.40
2022-10-16T04:56:25.313Z,16.90
2022-10-16T04:58:53.100Z,17.30
2022-10-16T05:01:22.257Z,17.10
2022-10-16T05:03:49.975Z,17.30
2022-10-16T05:06:17.698Z,16.90
2022-10-16T05:08:45.402Z,17.00
2022-10-16T05:11:13.144Z,17.30
2022-10-16T05:13:40.852Z,17.20
2022-10-16T05:16:08.752Z,17.10
2022-10-16T05:18:37.771Z,17.20
2022-10-16T05:21:06.648Z,17.10
2022-10-16T05:23:34.413Z,17.00
2022-10-16T05:26:02.350Z,17.20
2022-10-16T05:28:31.847Z,17.10
2022-10-16T05:31:00.178Z,17.20
2022-10-16T05:33:28.494Z,17.40
2022-10-16T05:35:57.530Z,17.20
2022-10-16T05:38:25.248Z,17.00
2022-10-16T05:40:54.146Z,17.30
2022-10-16T05:43:22.313Z,17.40
2022-10-16T05:45:56.993Z,17.40
2022-10-16T05:48:24.963Z,17.70
2022-10-16T05:51:00.718Z,17.40
2022-10-16T05:53:30.120Z,17.30
2022-10-16T05:55:58.507Z,17.60
2022-10-16T05:58:27.199Z,17.30
2022-10-16T06:00:55.973Z,17.40
2022-10-16T06:03:24.113Z,17.40
2022-10-16T06:05:52.136Z,17.40
2022-10-16T06:08:22.956Z,17.40
2022-10-16T06:10:51.261Z,17.40
2022-10-16T06:13:18.955Z,17.30
2022-10-16T06:15:47.323Z,17.50
2022-10-16T06:18:15.035Z,17.40
2022-10-16T06:20:42.751Z,17.30
2022-10-16T06:23:10.449Z,17.30
2022-10-16T06:25:39.493Z,17.30
2022-10-16T06:28:07.347Z,17.50
2022-10-16T06:30:35.062Z,17.50
2022-10-16T06:33:02.782Z,17.50
2022-10-16T06:35:32.766Z,17.30
2022-10-16T06:38:00.566Z,17.70
2022-10-16T06:40:28.527Z,17.50
2022-10-16T06:42:58.340Z,17.40
2022-10-16T06:45:26.172Z,17.60
2022-10-16T06:47:53.886Z,17.70
2022-10-16T06:50:21.587Z,17.60
2022-10-16T06:52:49.298Z,17.70
2022-10-16T06:55:17.910Z,17.50
2022-10-16T06:57:45.723Z,17.70
2022-10-16T07:00:15.231Z,17.60
2022-10-16T07:02:42.987Z,17.70
2022-10-16T07:05:10.903Z,17.80
2022-10-16T07:07:38.580Z,17.50
2022-10-16T07:10:06.981Z,17.40
2022-10-16T07:12:34.703Z,17.90
2022-10-16T07:15:02.454Z,17.60
2022-10-16T07:17:31.572Z,17.80
2022-10-16T07:19:59.232Z,17.70
2022-10-16T07:22:27.289Z,17.80
2022-10-16T07:24:55.232Z,17.90
2022-10-16T07:27:24.914Z,18.10
2022-10-16T07:29:52.780Z,18.40
2022-10-16T07:32:20.558Z,18.20
2022-10-16T07:34:49.640Z,18.60
2022-10-16T07:37:17.365Z,18.50
2022-10-16T07:39:45.065Z,18.30
2022-10-16T07:42:12.771Z,18.60
2022-10-16T07:44:40.954Z,18.70
2022-10-16T07:47:08.807Z,18.80
2022-10-16T07:49:36.578Z,18.40
2022-10-16T07:52:05.879Z,18.40
2022-10-16T07:54:33.618Z,18.70
2022-10-16T07:57:01.300Z,18.70
2022-10-16T07:59:29.121Z,18.80
2022-10-16T08:01:56.801Z,18.20
2022-10-16T08:04:24.589Z,18.90
2022-10-16T08:06:52.328Z,19.10
2022-10-16T08:09:21.481Z,19.80
2022-10-16T08:11:49.268Z,20.20
2022-10-16T08:14:17.157Z,19.60
2022-10-16T08:16:44.894Z,19.80
2022-10-16T08:19:12.629Z,20.00
2022-10-16T08:21:40.378Z,19.80
2022-10-16T08:24:08.175Z,19.90
2022-10-16T08:26:37.223Z,19.90
2022-10-16T08:29:04.980Z,19.70
2022-10-16T08:31:32.720Z,19.30
2022-10-16T08:34:00.763Z,19.90
2022-10-16T08:36:28.488Z,19.90
2022-10-16T08:38:56.678Z,19.60
2022-10-16T08:42:03.119Z,19.50
2022-10-16T08:45:00.520Z,19.50
2022-10-16T08:47:41.090Z,19.40
2022-10-16T08:50:12.197Z,19.70
2022-10-16T08:52:43.372Z,20.50
2022-10-16T08:55:25.109Z,21.80
2022-10-16T08:57:54.238Z,21.60
2022-10-16T09:00:22.932Z,21.00
2022-10-16T09:02:57.797Z,20.80
2022-10-16T09:05:39.977Z,20.80
2022-10-16T09:08:20.526Z,20.60
2022-10-16T09:10:56.846Z,20.80
2022-10-16T09:13:31.116Z,20.70
2022-10-16T09:16:12.998Z,20.70
2022-10-16T09:18:46.877Z,20.60
2022-10-16T09:21:20.259Z,20.80
2022-10-16T09:23:49.344Z,21.10
2022-10-16T09:26:20.022Z,21.50
2022-10-16T09:28:49.292Z,21.40
2022-10-16T09:31:21.346Z,22.00
2022-10-16T09:33:53.529Z,22.60
2022-10-16T09:36:22.807Z,23.00
2022-10-16T09:38:51.024Z,23.40
2022-10-16T09:41:21.635Z,23.70
2022-10-16T09:43:55.549Z,24.70
2022-10-16T09:46:31.221Z,25.90
2022-10-16T09:49:01.114Z,26.50
2022-10-16T09:51:30.941Z,27.20
2022-10-16T09:54:01.301Z,26.90
2022-10-16T09:56:30.857Z,25.60
2022-10-16T09:59:02.224Z,24.90
2022-10-16T10:01:36.988Z,24.50
2022-10-16T10:04:04.967Z,24.00
2022-10-16T10:06:35.325Z,23.50
2022-10-16T10:09:07.624Z,23.30
2022-10-16T10:11:53.947Z,22.30
2022-10-16T10:14:37.037Z,22.60
2022-10-16T10:17:15.016Z,22.10
2022-10-16T10:19:47.815Z,21.70
2022-10-16T10:22:19.702Z,21.80
2022-10-16T10:24:56.127Z,22.00
2022-10-16T10:27:29.957Z,22.60
2022-10-16T10:30:05.636Z,23.40
2022-10-16T10:32:43.819Z,24.00
2022-10-16T10:35:20.935Z,24.40
2022-10-16T10:38:00.167Z,24.50
2022-10-16T10:40:40.857Z,25.30
2022-10-16T10:43:21.233Z,26.10
2022-10-16T10:45:56.806Z,26.80
2022-10-16T10:48:49.574Z,27.70
2022-10-16T10:51:24.984Z,27.90
2022-10-16T10:53:56.899Z,27.60
2022-10-16T10:56:46.922Z,27.20
2022-10-16T10:59:54.315Z,27.10
2022-10-16T11:02:29.612Z,27.50
2022-10-16T11:05:22.383Z,28.20
2022-10-16T11:07:53.918Z,28.40
2022-10-16T11:10:25.365Z,28.50
2022-10-16T11:12:56.689Z,28.20
2022-10-16T11:15:31.006Z,28.70
2022-10-16T11:18:07.843Z,29.00
2022-10-16T11:20:41.752Z,29.50
2022-10-16T11:23:17.188Z,29.10
2022-10-16T11:25:46.724Z,28.70
2022-10-16T11:28:18.465Z,28.10
2022-10-16T11:30:51.300Z,28.00
2022-10-16T11:33:32.206Z,27.30
2022-10-16T11:36:05.912Z,27.60
2022-10-16T11:38:40.911Z,27.90
2022-10-16T11:41:17.284Z,27.90
2022-10-16T11:43:51.235Z,28.30
2022-10-16T11:46:23.490Z,29.10
2022-10-16T11:48:59.343Z,29.70
2022-10-16T11:51:35.198Z,30.40
2022-10-16T11:54:10.680Z,30.50
2022-10-16T11:56:42.292Z,29.80
2022-10-16T11:59:19.176Z,28.80
2022-10-16T12:01:52.217Z,27.80
2022-10-16T12:04:29.282Z,27.20
2022-10-16T12:07:04.219Z,26.50
2022-10-16T12:09:33.848Z,25.70
2022-10-16T12:12:02.405Z,25.20
2022-10-16T12:15:04.086Z,24.90
2022-10-16T12:17:36.585Z,24.70
2022-10-16T12:20:26.916Z,24.10
2022-10-16T12:22:57.877Z,24.00
2022-10-16T12:25:29.366Z,24.00
2022-10-16T12:28:00.101Z,23.90
2022-10-16T12:30:33.600Z,23.70
2022-10-16T12:33:04.612Z,23.70
2022-10-16T12:35:37.743Z,23.50
2022-10-16T12:40:42.985Z,23.30
2022-10-16T12:43:29.067Z,23.30
2022-10-16T12:46:02.657Z,23.10
2022-10-16T12:48:37.078Z,23.20
2022-10-16T12:51:26.543Z,23.20
2022-10-16T12:54:01.042Z,23.20
2022-10-16T12:59:17.886Z,23.30
2022-10-16T13:02:00.264Z,23.30
2022-10-16T13:04:48.456Z,23.30
2022-10-16T13:07:31.355Z,23.60
2022-10-16T13:10:10.479Z,23.90
2022-10-16T13:12:55.942Z,24.00
2022-10-16T13:15:43.713Z,24.10
2022-10-16T13:18:17.731Z,24.00
2022-10-16T13:21:05.673Z,24.00
2022-10-16T13:23:42.715Z,23.90
2022-10-16T13:26:20.282Z,23.60
2022-10-16T13:28:48.158Z,23.20
2022-10-16T13:31:20.339Z,22.80
2022-10-16T13:33:51.782Z,22.60
2022-10-16T13:36:24.033Z,22.40
2022-10-16T13:39:06.680Z,22.40
2022-10-16T13:41:34.379Z,22.20
2022-10-16T13:44:02.116Z,22.30
2022-10-16T13:46:30.599Z,22.10
2022-10-16T13:48:59.327Z,22.10
2022-10-16T13:51:27.186Z,22.00
2022-10-16T13:53:57.411Z,21.60
2022-10-16T13:56:29.221Z,22.20
2022-10-16T13:59:01.605Z,22.00
2022-10-16T14:01:32.744Z,22.00
2022-10-16T14:04:06.399Z,22.00
2022-10-16T14:06:35.021Z,21.90
2022-10-16T14:09:07.073Z,21.80
2022-10-16T14:11:40.865Z,21.70
2022-10-16T14:14:13.403Z,21.80
2022-10-16T14:16:43.779Z,21.90
2022-10-16T14:19:20.709Z,22.00
2022-10-16T14:21:51.999Z,21.80
2022-10-16T14:24:29.368Z,22.00
2022-10-16T14:26:59.007Z,22.00
2022-10-16T14:29:27.911Z,22.10
2022-10-16T14:31:59.878Z,21.80
2022-10-16T14:34:31.268Z,21.70
2022-10-16T14:37:01.865Z,21.70
2022-10-16T14:39:29.798Z,21.30
2022-10-16T14:42:00.344Z,21.40
2022-10-16T14:44:34.256Z,21.60
2022-10-16T14:47:11.914Z,21.60
2022-10-16T14:49:39.973Z,21.60
2022-10-16T14:52:12.053Z,21.60
2022-10-16T14:54:40.344Z,21.10
2022-10-16T14:57:18.772Z,21.30
2022-10-16T14:59:47.492Z,21.20
2022-10-16T15:02:24.881Z,21.60
2022-10-16T15:04:52.966Z,21.60
2022-10-16T15:07:20.740Z,21.60
2022-10-16T15:09:49.454Z,21.60
2022-10-16T15:12:19.107Z,21.80
2022-10-16T15:14:46.826Z,21.90
2022-10-16T15:17:16.398Z,21.90
2022-10-16T15:19:46.471Z,22.00
2022-10-16T15:22:14.430Z,22.10
2022-10-16T15:24:42.144Z,22.00
2022-10-16T15:27:09.842Z,22.00
2022-10-16T15:29:38.877Z,22.00
2022-10-16T15:32:06.773Z,22.00
2022-10-16T15:34:34.471Z,21.70
2022-10-16T15:37:05.263Z,21.90
2022-10-16T15:39:35.637Z,21.80
2022-10-16T15:42:06.720Z,21.60
2022-10-16T15:44:34.424Z,21.80
2022-10-16T15:47:03.469Z,21.60
2022-10-16T15:49:31.157Z,21.60
2022-10-16T15:51:58.876Z,21.50
2022-10-16T15:54:26.587Z,21.50
2022-10-16T15:56:54.412Z,21.50
2022-10-16T15:59:22.127Z,21.30
2022-10-16T16:01:49.865Z,21.00
2022-10-16T16:04:42.283Z,21.20
2022-10-16T16:07:08.174Z,20.90
2022-10-16T16:09:35.910Z,21.00
2022-10-16T16:12:03.750Z,21.10
2022-10-16T16:14:31.445Z,21.20
2022-10-16T16:16:59.412Z,21.00
2022-10-16T16:19:28.501Z,21.20
2022-10-16T16:21:56.204Z,21.20
2022-10-16T16:24:23.928Z,21.10
2022-10-16T16:26:51.678Z,21.00
2022-10-16T16:29:19.442Z,21.00
2022-10-16T16:31:47.973Z,20.90
2022-10-16T16:34:16.013Z,20.30
2022-10-16T16:36:45.053Z,20.50
2022-10-16T16:39:12.783Z,20.70
2022-10-16T16:41:40.501Z,20.70
2022-10-16T16:44:12.476Z,20.30
2022-10-16T16:46:40.938Z,20.50
2022-10-16T16:49:09.042Z,20.50
2022-10-16T16:51:39.742Z,20.40
2022-10-16T16:54:11.192Z,20.10
2022-10-16T16:56:39.033Z,20.30
2022-10-16T16:59:06.752Z,20.00
2022-10-16T17:01:34.467Z,20.10
2022-10-16T17:04:03.115Z,20.10
2022-10-16T17:06:31.316Z,19.50
2022-10-16T17:08:59.747Z,19.60
2022-10-16T17:11:29.220Z,19.80
2022-10-16T17:13:58.548Z,19.50
2022-10-16T17:16:29.575Z,19.80
2022-10-16T17:18:57.391Z,19.80
2022-10-16T17:21:26.866Z,19.20
2022-10-16T17:23:54.834Z,19.40
2022-10-16T17:26:22.607Z,19.40
2022-10-16T17:28:54.545Z,19.70
2022-10-16T17:31:24.287Z,19.20
2022-10-16T17:33:52.576Z,19.40
2022-10-16T17:36:21.336Z,19.50
2022-10-16T17:38:49.120Z,19.50
2022-10-16T17:41:18.544Z,19.60
2022-10-16T17:43:46.848Z,19.70
2022-10-16T17:46:17.333Z,19.40
2022-10-16T17:48:46.722Z,19.30
2022-10-16T17:51:16.368Z,19.60
2022-10-16T17:53:44.738Z,19.60
2022-10-16T17:56:14.394Z,19.70
2022-10-16T17:58:43.157Z,19.70
2022-10-16T18:01:18.742Z,19.60
2022-10-16T18:03:50.902Z,19.40
2022-10-16T18:06:22.682Z,19.60
2022-10-16T18:08:51.211Z,19.70
2022-10-16T18:11:19.329Z,19.00
2022-10-16T18:13:47.146Z,19.30
2022-10-16T18:16:16.817Z,19.90
2022-10-16T18:18:45.785Z,19.70
2022-10-16T18:21:15.343Z,19.70
2022-10-16T18:23:49.047Z,19.70
2022-10-16T18:26:20.108Z,19.80
2022-10-16T18:28:48.347Z,19.30
2022-10-16T18:31:18.754Z,19.20
2022-10-16T18:33:50.351Z,19.00
2022-10-16T18:36:20.808Z,19.30
2022-10-16T18:38:48.778Z,19.20
2022-10-16T18:41:16.521Z,19.10
2022-10-16T18:43:44.267Z,19.20
2022-10-16T18:46:15.182Z,18.90
2022-10-16T18:48:44.477Z,19.00
2022-10-16T18:51:15.899Z,18.80
2022-10-16T18:53:45.581Z,18.80
2022-10-16T18:56:15.003Z,18.20
2022-10-16T18:58:44.271Z,18.60
2022-10-16T19:01:16.578Z,18.40
2022-10-16T19:03:46.075Z,18.20
2022-10-16T19:06:15.557Z,18.60
2022-10-16T19:08:44.384Z,18.80
2022-10-16T19:11:14.752Z,18.70
2022-10-16T19:13:43.393Z,18.30
2022-10-16T19:16:21.946Z,18.60
2022-10-16T19:18:53.487Z,18.80
2022-10-16T19:21:21.657Z,18.10
2022-10-16T19:23:53.578Z,18.50
2022-10-16T19:26:23.478Z,18.60
2022-10-16T19:28:53.111Z,18.60
2022-10-16T19:31:23.105Z,18.60
2022-10-16T19:33:54.962Z,18.50
2022-10-16T19:36:26.707Z,18.20
2022-10-16T19:38:56.733Z,18.30
2022-10-16T19:41:25.866Z,18.40
2022-10-16T19:43:54.391Z,18.40
2022-10-16T19:46:24.364Z,18.30
2022-10-16T19:48:56.943Z,18.30
2022-10-16T19:51:25.405Z,18.30
2022-10-16T19:53:56.573Z,18.20
2022-10-16T19:56:25.840Z,18.00
2022-10-16T19:58:56.225Z,18.30
2022-10-16T20:01:26.305Z,17.60
2022-10-16T20:03:54.629Z,18.30
2022-10-16T20:06:23.711Z,18.10
2022-10-16T20:08:53.302Z,17.90
2022-10-16T20:11:24.479Z,18.40
2022-10-16T20:13:52.536Z,17.70
2022-10-16T20:16:20.937Z,18.20
2022-10-16T20:18:50.284Z,18.00
2022-10-16T20:21:19.787Z,18.00
2022-10-16T20:23:50.751Z,17.70
2022-10-16T20:26:20.071Z,17.40
2022-10-16T20:28:48.078Z,17.30
2022-10-16T20:31:19.648Z,17.70
2022-10-16T20:33:47.477Z,17.60
2022-10-16T20:36:16.398Z,17.50
2022-10-16T20:38:44.403Z,17.80
2022-10-16T20:41:14.225Z,17.80
2022-10-16T20:46:18.184Z,17.30
2022-10-16T20:48:47.203Z,17.20
2022-10-16T20:51:17.200Z,17.40
2022-10-16T20:53:45.888Z,17.50
2022-10-16T20:56:17.308Z,17.50
2022-10-16T20:58:46.121Z,17.30
2022-10-16T21:01:16.588Z,17.00
2022-10-16T21:03:45.703Z,17.20
2022-10-16T21:06:13.710Z,17.10
2022-10-16T21:08:43.548Z,16.90
2022-10-16T21:11:13.209Z,17.10
2022-10-16T21:13:43.177Z,17.00
2022-10-16T21:16:12.832Z,17.50
2022-10-16T21:18:44.621Z,17.30
2022-10-16T21:21:21.816Z,17.20
2022-10-16T21:23:49.968Z,16.80
2022-10-16T21:26:20.890Z,17.10
2022-10-16T21:28:52.698Z,17.00
2022-10-16T21:31:21.838Z,17.00
2022-10-16T21:33:50.905Z,16.60
2022-10-16T21:36:21.559Z,16.90
2022-10-16T21:38:49.845Z,16.70
2022-10-16T21:41:19.661Z,16.70
2022-10-16T21:43:48.481Z,16.70
2022-10-16T21:46:19.415Z,16.80
2022-10-16T21:48:48.037Z,16.80
2022-10-16T21:51:16.475Z,16.70
2022-10-16T21:53:44.616Z,16.80
2022-10-16T21:56:17.458Z,16.80
2022-10-16T21:58:45.986Z,16.60
2022-10-16T22:01:15.921Z,16.30
2022-10-16T22:03:45.660Z,16.50
2022-10-16T22:06:15.496Z,16.70
2022-10-16T22:08:43.547Z,16.50
2022-10-16T22:11:13.722Z,16.60
2022-10-16T22:13:42.492Z,16.60
2022-10-16T22:16:10.887Z,16.30
2022-10-16T22:18:39.495Z,16.40
2022-10-16T22:21:10.352Z,16.50
2022-10-16T22:23:38.117Z,16.50
2022-10-16T22:26:08.517Z,16.50
2022-10-16T22:28:36.756Z,16.50
2022-10-16T22:31:06.657Z,16.10
2022-10-16T22:36:02.512Z,16.30
2022-10-16T22:38:31.634Z,16.30
2022-10-16T22:41:02.570Z,16.40
2022-10-16T22:43:30.284Z,16.50
2022-10-16T22:46:03.488Z,15.90
2022-10-16T22:48:31.354Z,16.60
2022-10-16T22:50:59.079Z,16.40
2022-10-16T22:53:26.845Z,16.40
2022-10-16T22:55:56.080Z,16.60
2022-10-16T22:58:23.845Z,16.30
2022-10-16T23:00:51.758Z,16.40
2022-10-16T23:03:19.661Z,16.20
2022-10-16T23:05:47.425Z,16.40
2022-10-16T23:08:15.309Z,16.40
2022-10-16T23:10:45.238Z,16.60
2022-10-16T23:13:14.920Z,16.50
2022-10-16T23:15:43.407Z,16.60
2022-10-16T23:18:11.884Z,16.60
2022-10-16T23:20:41.382Z,16.50
2022-10-16T23:23:09.600Z,16.50
2022-10-16T23:25:37.818Z,16.40
2022-10-16T23:28:05.943Z,16.50
2022-10-16T23:30:35.037Z,16.70
2022-10-16T23:33:02.844Z,17.00
2022-10-16T23:35:30.550Z,16.90
2022-10-16T23:37:58.766Z,16.70
2022-10-16T23:40:26.515Z,16.60
2022-10-16T23:42:54.201Z,16.10
2022-10-16T23:45:21.894Z,16.60
2022-10-16T23:47:50.967Z,16.60
2022-10-16T23:50:18.712Z,16.90
2022-10-16T23:52:46.455Z,17.00
2022-10-16T23:55:14.189Z,16.60
2022-10-16T23:57:41.931Z,16.70
